Time;durP1;ratioP1;P1;durP2;ratioP2;P2;SDS_P1;SDS_P2;PMS_P1;PMS_P2;Temp;Humidity;BMP_temperature;BMP_pressure;BME280_temperature;BME280_humidity;BME280_pressure;Samples;Min_cycle;Max_cycle;Signal;HPM_P1;HPM_P2
2023/01/11 00:00:10;;;;;;;3.47;1.23;;;;;;;;;;5050310;28;20022;-79
2023/01/11 00:02:37;;;;;;;2.80;1.33;;;;;;;;;;5016986;28;20030;-80
2023/01/11 00:05:03;;;;;;;1.38;0.95;;;;;;;;;;5042442;28;20493;-80
2023/01/11 00:07:29;;;;;;;1.23;0.65;;;;;;;;;;5043444;28;20029;-79
2023/01/11 00:09:56;;;;;;;2.13;1.02;;;;;;;;;;5026514;28;20263;-79
2023/01/11 00:12:22;;;;;;;2.03;0.60;;;;;;;;;;5022919;28;20072;-79
2023/01/11 00:14:48;;;;;;;2.05;0.90;;;;;;;;;;5024759;28;20386;-79
2023/01/11 00:17:14;;;;;;;3.45;0.70;;;;;;;;;;5026441;28;20037;-80
2023/01/11 00:19:40;;;;;;;3.55;0.80;;;;;;;;;;5029919;28;20378;-80
2023/01/11 00:22:07;;;;;;;0.50;0.50;;;;;;;;;;5050828;28;20112;-81
2023/01/11 00:24:33;;;;;;;0.85;0.57;;;;;;;;;;5044073;28;20048;-80
2023/01/11 00:26:59;;;;;;;1.63;0.77;;;;;;;;;;5036153;28;20029;-80
2023/01/11 00:29:25;;;;;;;1.63;0.60;;;;;;;;;;5040302;28;20030;-80
2023/01/11 00:31:52;;;;;;;1.27;0.55;;;;;;;;;;5026661;28;20069;-80
2023/01/11 00:34:19;;;;;;;2.22;0.88;;;;;;;;;;5018493;28;20038;-80
2023/01/11 00:36:45;;;;;;;1.00;0.57;;;;;;;;;;5035063;28;20021;-79
2023/01/11 00:39:11;;;;;;;2.63;0.65;;;;;;;;;;5025846;28;20030;-80
2023/01/11 00:50:01;;;;;;;1.17;0.60;;;;;;;;;;5024144;28;20024;-79
2023/01/11 00:52:27;;;;;;;2.00;0.85;;;;;;;;;;5036872;28;20034;-78
2023/01/11 00:54:54;;;;;;;2.20;0.88;;;;;;;;;;5027224;28;20052;-79
2023/01/11 00:57:21;;;;;;;2.00;0.80;;;;;;;;;;5050683;28;20425;-80
2023/01/11 00:59:47;;;;;;;1.15;0.52;;;;;;;;;;5038281;28;20026;-79
2023/01/11 01:02:13;;;;;;;3.63;0.70;;;;;;;;;;5023009;28;20022;-79
2023/01/11 01:04:40;;;;;;;2.63;0.80;;;;;;;;;;5016057;28;20033;-80
2023/01/11 01:07:06;;;;;;;1.02;0.60;;;;;;;;;;5023812;28;20026;-79
2023/01/11 01:09:32;;;;;;;1.00;0.70;;;;;;;;;;5024206;28;20018;-79
2023/01/11 01:12:01;;;;;;;2.80;0.63;;;;;;;;;;5023991;28;20018;-78
2023/01/11 01:14:28;;;;;;;1.05;0.70;;;;;;;;;;5022715;28;20037;-79
2023/01/11 01:16:56;;;;;;;1.95;0.68;;;;;;;;;;5039120;28;20021;-78
2023/01/11 01:19:22;;;;;;;2.35;0.70;;;;;;;;;;5041578;28;20900;-80
2023/01/11 01:21:51;;;;;;;3.72;0.88;;;;;;;;;;5026441;28;20086;-79
2023/01/11 01:24:17;;;;;;;0.77;0.45;;;;;;;;;;5031063;28;20040;-80
2023/01/11 01:26:43;;;;;;;0.73;0.40;;;;;;;;;;5038591;28;20036;-79
2023/01/11 01:29:10;;;;;;;2.25;0.75;;;;;;;;;;5027518;28;20022;-78
2023/01/11 01:31:36;;;;;;;0.32;0.32;;;;;;;;;;5022642;28;20022;-78
2023/01/11 01:34:02;;;;;;;0.90;0.50;;;;;;;;;;5017200;28;20046;-79
2023/01/11 01:36:28;;;;;;;1.13;0.60;;;;;;;;;;5016466;28;20010;-80
2023/01/11 01:38:54;;;;;;;0.45;0.45;;;;;;;;;;5028012;28;20353;-80
2023/01/11 01:41:20;;;;;;;1.67;0.82;;;;;;;;;;5027592;28;20589;-78
2023/01/11 01:43:51;;;;;;;1.92;0.60;;;;;;;;;;5024561;28;20060;-80
2023/01/11 01:46:18;;;;;;;3.35;0.60;;;;;;;;;;5023798;28;20034;-79
2023/01/11 01:48:48;;;;;;;1.85;0.80;;;;;;;;;;5020454;28;20022;-80
2023/01/11 01:51:16;;;;;;;2.58;0.82;;;;;;;;;;5026924;28;20029;-80
2023/01/11 01:53:44;;;;;;;1.83;1.13;;;;;;;;;;5030352;28;20029;-80
2023/01/11 01:56:14;;;;;;;0.80;0.70;;;;;;;;;;5052461;28;20029;-80
2023/01/11 01:58:45;;;;;;;1.10;0.90;;;;;;;;;;5032911;28;20018;-80
2023/01/11 02:04:01;;;;;;;2.20;0.90;;;;;;;;;;5026824;28;20044;-80
2023/01/11 02:06:27;;;;;;;0.90;0.57;;;;;;;;;;5028284;28;20398;-80
2023/01/11 02:08:58;;;;;;;1.85;0.60;;;;;;;;;;5026519;28;20033;-80
2023/01/11 02:11:30;;;;;;;0.70;0.40;;;;;;;;;;5025858;28;20026;-80
2023/01/11 02:13:56;;;;;;;;;;;;;;;;;;5027671;28;20061;-80
2023/01/11 02:16:22;;;;;;;1.20;0.68;;;;;;;;;;5022813;28;19913;-80
2023/01/11 02:18:48;;;;;;;2.00;0.73;;;;;;;;;;5025309;28;20029;-80
2023/01/11 02:21:22;;;;;;;2.33;0.75;;;;;;;;;;5030226;28;20030;-80
2023/01/11 02:24:06;;;;;;;1.55;0.63;;;;;;;;;;5027665;28;20359;-80
2023/01/11 02:26:51;;;;;;;0.82;0.38;;;;;;;;;;5038891;28;20381;-81
2023/01/11 02:29:40;;;;;;;0.85;0.55;;;;;;;;;;5027448;28;20100;-79
2023/01/11 02:32:14;;;;;;;1.30;0.55;;;;;;;;;;5015267;28;20092;-79
2023/01/11 02:35:06;;;;;;;1.25;0.50;;;;;;;;;;5024651;28;20061;-78
2023/01/11 02:37:45;;;;;;;1.10;0.30;;;;;;;;;;5009642;28;20038;-79
2023/01/11 02:40:23;;;;;;;1.92;0.50;;;;;;;;;;5024612;28;20026;-79
2023/01/11 02:45:42;;;;;;;0.68;0.43;;;;;;;;;;5024079;28;20025;-79
2023/01/11 02:48:08;;;;;;;3.80;0.60;;;;;;;;;;5022873;28;20098;-80
2023/01/11 02:50:39;;;;;;;2.08;0.50;;;;;;;;;;5027247;28;20037;-79
2023/01/11 02:53:27;;;;;;;1.02;0.50;;;;;;;;;;5024338;28;20037;-80
2023/01/11 02:55:56;;;;;;;0.50;0.50;;;;;;;;;;5034721;28;20423;-80
2023/01/11 02:58:24;;;;;;;0.70;0.45;;;;;;;;;;5027074;28;20152;-80
2023/01/11 03:00:51;;;;;;;0.80;0.40;;;;;;;;;;5024765;28;20029;-79
2023/01/11 03:03:18;;;;;;;0.80;0.43;;;;;;;;;;5025893;28;20386;-80
2023/01/11 03:05:47;;;;;;;1.58;0.43;;;;;;;;;;5015450;28;20057;-80
2023/01/11 03:08:22;;;;;;;3.08;0.50;;;;;;;;;;5024915;28;20053;-79
2023/01/11 03:10:58;;;;;;;0.90;0.40;;;;;;;;;;5024597;28;20018;-80
2023/01/11 03:13:47;;;;;;;1.13;0.55;;;;;;;;;;5024407;28;20022;-80
2023/01/11 03:16:24;;;;;;;0.82;0.40;;;;;;;;;;5017657;28;20042;-79
2023/01/11 03:18:53;;;;;;;0.28;0.28;;;;;;;;;;5023799;28;20176;-79
2023/01/11 03:21:25;;;;;;;3.30;0.50;;;;;;;;;;5027175;28;20030;-80
2023/01/11 03:24:09;;;;;;;1.42;0.50;;;;;;;;;;5026522;28;20026;-79
2023/01/11 03:26:50;;;;;;;0.60;0.40;;;;;;;;;;5027022;28;20026;-80
2023/01/11 03:29:23;;;;;;;0.50;0.22;;;;;;;;;;5024717;28;20068;-79
2023/01/11 03:31:58;;;;;;;1.67;0.60;;;;;;;;;;5023548;28;20022;-79
2023/01/11 03:34:27;;;;;;;0.50;0.35;;;;;;;;;;5024181;28;20046;-80
2023/01/11 03:36:56;;;;;;;0.30;0.30;;;;;;;;;;5024891;28;20030;-80
2023/01/11 03:39:25;;;;;;;0.95;0.40;;;;;;;;;;5025133;28;20390;-79
2023/01/11 03:41:56;;;;;;;1.33;0.65;;;;;;;;;;5021838;28;20026;-79
2023/01/11 03:44:23;;;;;;;3.13;0.45;;;;;;;;;;5023897;28;20033;-79
2023/01/11 03:46:52;;;;;;;0.30;0.25;;;;;;;;;;5010896;28;20053;-80
2023/01/11 03:49:29;;;;;;;1.33;0.60;;;;;;;;;;5038743;28;20030;-80
2023/01/11 03:51:56;;;;;;;1.77;0.40;;;;;;;;;;5023462;28;20056;-79
2023/01/11 03:54:23;;;;;;;0.80;0.40;;;;;;;;;;5031176;28;20045;-79
2023/01/11 03:56:49;;;;;;;2.05;0.50;;;;;;;;;;5035252;28;20147;-79
2023/01/11 03:59:16;;;;;;;1.10;0.35;;;;;;;;;;5040377;28;20034;-79
2023/01/11 04:01:42;;;;;;;0.70;0.52;;;;;;;;;;5023324;28;20048;-80
2023/01/11 04:04:09;;;;;;;0.55;0.38;;;;;;;;;;5023830;28;20022;-80
2023/01/11 04:06:38;;;;;;;0.40;0.40;;;;;;;;;;5023418;28;20029;-80
2023/01/11 04:09:05;;;;;;;0.63;0.32;;;;;;;;;;5038802;28;20022;-80
2023/01/11 04:11:31;;;;;;;0.52;0.38;;;;;;;;;;5023929;28;20028;-78
2023/01/11 04:13:57;;;;;;;0.77;0.50;;;;;;;;;;5023445;28;20049;-78
2023/01/11 04:16:24;;;;;;;0.55;0.30;;;;;;;;;;5022664;28;20018;-80
2023/01/11 04:18:50;;;;;;;1.27;0.40;;;;;;;;;;5017224;28;20026;-80
2023/01/11 04:21:16;;;;;;;0.68;0.38;;;;;;;;;;5025254;28;20030;-79
2023/01/11 04:23:42;;;;;;;0.45;0.28;;;;;;;;;;5024236;28;20048;-78
2023/01/11 04:26:08;;;;;;;0.88;0.28;;;;;;;;;;5036802;28;20018;-79
2023/01/11 04:28:34;;;;;;;0.95;0.30;;;;;;;;;;5028508;28;20034;-79
2023/01/11 04:31:00;;;;;;;0.30;0.30;;;;;;;;;;5023971;28;20096;-79
2023/01/11 04:33:26;;;;;;;0.40;0.20;;;;;;;;;;5021330;28;20054;-78
2023/01/11 04:35:52;;;;;;;2.10;0.55;;;;;;;;;;5029668;28;20140;-79
2023/01/11 04:38:18;;;;;;;0.30;0.20;;;;;;;;;;5023294;28;20030;-81
2023/01/11 04:40:44;;;;;;;0.40;0.30;;;;;;;;;;5018352;28;20025;-79
2023/01/11 04:43:10;;;;;;;1.48;0.28;;;;;;;;;;5025058;28;20033;-79
2023/01/11 04:45:37;;;;;;;1.15;0.20;;;;;;;;;;5022322;28;20026;-80
2023/01/11 04:48:03;;;;;;;0.82;0.20;;;;;;;;;;5026142;28;20044;-80
2023/01/11 04:50:29;;;;;;;0.25;0.20;;;;;;;;;;5023378;28;20406;-79
2023/01/11 04:52:55;;;;;;;1.13;0.45;;;;;;;;;;5023817;28;20037;-79
2023/01/11 04:55:21;;;;;;;1.30;0.30;;;;;;;;;;5030255;28;20052;-78
2023/01/11 04:57:47;;;;;;;4.07;0.45;;;;;;;;;;5035682;28;20014;-78
2023/01/11 05:00:14;;;;;;;0.50;0.28;;;;;;;;;;5021270;28;20079;-79
2023/01/11 05:02:41;;;;;;;1.45;0.35;;;;;;;;;;5020760;28;20109;-79
2023/01/11 05:05:07;;;;;;;1.38;0.55;;;;;;;;;;5019394;28;20060;-78
2023/01/11 05:07:33;;;;;;;1.83;0.50;;;;;;;;;;5023585;28;20030;-78
2023/01/11 05:10:00;;;;;;;0.47;0.40;;;;;;;;;;5028720;28;20021;-79
2023/01/11 05:12:26;;;;;;;1.20;0.35;;;;;;;;;;5025272;28;20026;-79
2023/01/11 05:14:52;;;;;;;1.45;0.40;;;;;;;;;;5027948;28;20041;-80
2023/01/11 05:17:18;;;;;;;0.60;0.38;;;;;;;;;;5028832;28;20032;-80
2023/01/11 05:19:44;;;;;;;0.40;0.30;;;;;;;;;;5029084;28;20022;-80
2023/01/11 05:22:10;;;;;;;0.77;0.43;;;;;;;;;;5027970;28;20014;-81
2023/01/11 05:24:36;;;;;;;0.30;0.30;;;;;;;;;;5031739;28;20030;-80
2023/01/11 05:27:02;;;;;;;0.55;0.30;;;;;;;;;;5057961;28;20032;-81
2023/01/11 05:29:29;;;;;;;0.10;0.10;;;;;;;;;;5029726;28;20022;-81
2023/01/11 05:31:55;;;;;;;0.68;0.40;;;;;;;;;;5032197;28;20041;-80
2023/01/11 05:34:21;;;;;;;0.30;0.20;;;;;;;;;;5029221;28;20030;-81
2023/01/11 05:36:47;;;;;;;0.68;0.30;;;;;;;;;;5030164;28;20053;-80
2023/01/11 05:39:13;;;;;;;0.30;0.20;;;;;;;;;;5022092;28;20030;-80
2023/01/11 05:41:40;;;;;;;0.30;0.30;;;;;;;;;;5041346;28;20041;-79
2023/01/11 05:46:53;;;;;;;0.38;0.32;;;;;;;;;;5041506;28;20048;-80
2023/01/11 05:49:19;;;;;;;1.08;0.50;;;;;;;;;;5035300;28;20013;-81
2023/01/11 05:51:46;;;;;;;0.80;0.47;;;;;;;;;;5034835;28;20049;-81
2023/01/11 05:54:13;;;;;;;1.48;0.20;;;;;;;;;;5029889;28;20033;-80
2023/01/11 05:56:41;;;;;;;0.45;0.30;;;;;;;;;;5029180;28;20037;-81
2023/01/11 05:59:07;;;;;;;0.40;0.30;;;;;;;;;;5027083;28;20017;-79
2023/01/11 06:01:34;;;;;;;0.40;0.38;;;;;;;;;;5027853;28;20021;-78
2023/01/11 06:04:00;;;;;;;0.22;0.20;;;;;;;;;;5021894;28;20048;-79
2023/01/11 06:06:26;;;;;;;1.33;0.45;;;;;;;;;;5018320;28;20173;-77
2023/01/11 06:08:52;;;;;;;1.10;0.38;;;;;;;;;;5024374;28;20414;-78
2023/01/11 06:11:18;;;;;;;1.13;0.40;;;;;;;;;;5029710;28;20018;-78
2023/01/11 06:13:45;;;;;;;1.35;0.50;;;;;;;;;;5020749;28;20029;-79
2023/01/11 06:16:15;;;;;;;0.30;0.30;;;;;;;;;;5020754;28;20497;-79
2023/01/11 06:18:42;;;;;;;0.65;0.40;;;;;;;;;;5022491;28;20022;-78
2023/01/11 06:21:09;;;;;;;0.22;0.20;;;;;;;;;;5037111;28;20025;-79
2023/01/11 06:23:36;;;;;;;1.10;0.60;;;;;;;;;;5029585;28;20017;-79
2023/01/11 06:26:03;;;;;;;1.38;0.77;;;;;;;;;;5027361;28;20074;-78
2023/01/11 06:28:29;;;;;;;0.40;0.40;;;;;;;;;;5043345;28;20461;-80
2023/01/11 06:30:56;;;;;;;0.82;0.40;;;;;;;;;;5044977;28;20500;-79
2023/01/11 06:33:23;;;;;;;0.95;0.40;;;;;;;;;;5029494;28;20089;-79
2023/01/11 06:35:49;;;;;;;2.60;0.95;;;;;;;;;;5024802;28;20033;-79
2023/01/11 06:38:16;;;;;;;0.95;0.80;;;;;;;;;;5023885;28;20446;-80
2023/01/11 06:40:42;;;;;;;0.60;0.60;;;;;;;;;;5022999;28;20024;-80
2023/01/11 06:43:09;;;;;;;1.40;0.68;;;;;;;;;;5023618;28;20077;-80
2023/01/11 06:45:37;;;;;;;1.88;0.80;;;;;;;;;;5020906;28;20025;-78
2023/01/11 06:48:04;;;;;;;0.77;0.68;;;;;;;;;;5023298;28;20026;-78
2023/01/11 06:50:30;;;;;;;1.95;0.57;;;;;;;;;;5025270;28;20126;-79
2023/01/11 06:52:57;;;;;;;1.02;0.65;;;;;;;;;;5023336;28;20037;-79
2023/01/11 06:55:24;;;;;;;0.90;0.47;;;;;;;;;;5031606;28;20097;-79
2023/01/11 06:57:50;;;;;;;1.13;0.52;;;;;;;;;;5024407;28;20371;-79
2023/01/11 07:00:17;;;;;;;0.70;0.40;;;;;;;;;;5024950;28;20399;-78
2023/01/11 07:02:44;;;;;;;0.47;0.35;;;;;;;;;;5019890;28;20060;-80
2023/01/11 07:05:10;;;;;;;2.80;0.50;;;;;;;;;;5022554;28;20026;-79
2023/01/11 07:07:37;;;;;;;2.75;0.50;;;;;;;;;;5022824;28;20022;-80
2023/01/11 07:10:03;;;;;;;0.22;0.20;;;;;;;;;;5026604;28;20068;-81
2023/01/11 07:12:29;;;;;;;2.28;0.47;;;;;;;;;;5027142;28;20052;-79
2023/01/11 07:14:55;;;;;;;1.10;0.50;;;;;;;;;;5027540;28;20509;-79
2023/01/11 07:17:22;;;;;;;2.28;0.50;;;;;;;;;;5017180;28;20026;-79
2023/01/11 07:19:48;;;;;;;1.00;0.40;;;;;;;;;;5021946;28;20041;-79
2023/01/11 07:22:15;;;;;;;0.57;0.30;;;;;;;;;;5038159;28;20030;-78
2023/01/11 07:24:41;;;;;;;0.43;0.32;;;;;;;;;;5035722;28;20037;-79
2023/01/11 07:27:07;;;;;;;0.45;0.30;;;;;;;;;;5027981;28;20026;-78
2023/01/11 07:29:33;;;;;;;0.82;0.43;;;;;;;;;;5026180;28;20041;-78
2023/01/11 07:31:59;;;;;;;0.47;0.28;;;;;;;;;;5025679;28;20041;-78
2023/01/11 07:34:25;;;;;;;1.05;0.52;;;;;;;;;;5025228;28;20041;-79
2023/01/11 07:36:51;;;;;;;1.17;0.57;;;;;;;;;;5012975;28;20026;-79
2023/01/11 07:39:17;;;;;;;0.35;0.28;;;;;;;;;;5006468;28;20023;-78
2023/01/11 07:44:48;;;;;;;0.30;0.30;;;;;;;;;;5021782;28;20034;-80
2023/01/11 07:47:14;;;;;;;0.60;0.60;;;;;;;;;;5006118;28;20059;-79
2023/01/11 07:49:40;;;;;;;0.50;0.50;;;;;;;;;;5002649;28;20042;-79
2023/01/11 07:52:06;;;;;;;0.77;0.30;;;;;;;;;;5018248;28;20040;-81
2023/01/11 07:54:32;;;;;;;0.57;0.40;;;;;;;;;;5028694;28;20037;-80
2023/01/11 07:56:58;;;;;;;2.35;0.40;;;;;;;;;;5025050;28;20025;-81
2023/01/11 07:59:25;;;;;;;0.68;0.32;;;;;;;;;;5023608;28;20037;-80
2023/01/11 08:01:51;;;;;;;1.15;0.50;;;;;;;;;;5022973;28;20072;-80
2023/01/11 08:04:17;;;;;;;0.38;0.32;;;;;;;;;;5040502;28;20030;-79
2023/01/11 08:06:43;;;;;;;0.50;0.40;;;;;;;;;;5020137;28;20137;-80
2023/01/11 08:09:09;;;;;;;1.40;0.50;;;;;;;;;;5012581;28;20018;-81
2023/01/11 08:14:38;;;;;;;0.88;0.52;;;;;;;;;;5023992;28;20073;-80
2023/01/11 08:17:08;;;;;;;1.13;0.70;;;;;;;;;;5025977;28;20006;-79
2023/01/11 08:19:35;;;;;;;1.85;0.45;;;;;;;;;;5024899;28;20022;-80
2023/01/11 08:22:01;;;;;;;0.75;0.60;;;;;;;;;;5038973;28;20018;-79
2023/01/11 08:24:28;;;;;;;2.28;0.50;;;;;;;;;;5029895;28;20059;-78
2023/01/11 08:26:54;;;;;;;0.40;0.40;;;;;;;;;;5034676;28;20026;-79
2023/01/11 08:29:20;;;;;;;1.15;0.90;;;;;;;;;;5024515;28;20025;-79
2023/01/11 08:31:46;;;;;;;1.42;0.65;;;;;;;;;;5025295;28;20033;-78
2023/01/11 08:34:13;;;;;;;2.65;0.77;;;;;;;;;;5016179;28;20092;-78
2023/01/11 08:36:39;;;;;;;2.47;0.90;;;;;;;;;;5022616;28;20034;-80
2023/01/11 08:39:05;;;;;;;1.23;1.13;;;;;;;;;;5022950;28;20057;-80
2023/01/11 08:41:31;;;;;;;0.50;0.50;;;;;;;;;;5023361;28;20038;-79
2023/01/11 08:43:57;;;;;;;1.00;0.80;;;;;;;;;;5039420;28;20034;-80
2023/01/11 08:46:24;;;;;;;0.60;0.60;;;;;;;;;;5024571;28;20084;-80
2023/01/11 08:48:52;;;;;;;1.50;0.77;;;;;;;;;;5014261;28;20044;-79
2023/01/11 08:51:18;;;;;;;0.70;0.70;;;;;;;;;;5016298;28;20104;-79
2023/01/11 08:53:44;;;;;;;1.15;0.75;;;;;;;;;;5004440;28;20027;-80
2023/01/11 08:56:12;;;;;;;1.30;0.57;;;;;;;;;;5040934;28;20041;-78
2023/01/11 08:58:38;;;;;;;0.98;0.63;;;;;;;;;;5042958;28;20030;-81
2023/01/11 09:01:07;;;;;;;0.65;0.65;;;;;;;;;;5016649;28;20038;-79
2023/01/11 09:03:33;;;;;;;0.65;0.65;;;;;;;;;;5035682;28;20026;-78
2023/01/11 09:06:00;;;;;;;1.40;0.70;;;;;;;;;;5020602;28;20036;-77
2023/01/11 09:08:26;;;;;;;1.63;0.90;;;;;;;;;;5029719;28;20198;-78
2023/01/11 09:10:58;;;;;;;0.90;0.80;;;;;;;;;;5038501;28;20514;-79
2023/01/11 09:13:24;;;;;;;1.63;0.85;;;;;;;;;;5040359;28;20124;-78
2023/01/11 09:15:54;;;;;;;1.33;0.85;;;;;;;;;;5016909;28;20018;-80
2023/01/11 09:18:20;;;;;;;0.82;0.80;;;;;;;;;;5025505;28;20034;-79
2023/01/11 09:20:46;;;;;;;2.25;0.80;;;;;;;;;;5023926;28;20037;-79
2023/01/11 09:23:12;;;;;;;0.82;0.65;;;;;;;;;;5022058;28;20034;-78
2023/01/11 09:25:38;;;;;;;0.80;0.75;;;;;;;;;;5024184;28;20029;-79
2023/01/11 09:28:04;;;;;;;1.52;0.80;;;;;;;;;;5023601;28;20037;-79
2023/01/11 09:30:30;;;;;;;3.97;0.70;;;;;;;;;;5020513;28;20053;-78
2023/01/11 09:32:57;;;;;;;1.13;0.95;;;;;;;;;;5020477;28;20062;-79
2023/01/11 09:35:24;;;;;;;1.45;0.80;;;;;;;;;;5021255;28;20061;-80
2023/01/11 09:37:55;;;;;;;1.52;0.88;;;;;;;;;;5037384;28;20026;-80
2023/01/11 09:40:22;;;;;;;1.10;1.00;;;;;;;;;;5012151;28;20037;-79
2023/01/11 09:42:51;;;;;;;2.63;1.00;;;;;;;;;;5002899;28;20065;-79
2023/01/11 09:45:19;;;;;;;2.25;0.70;;;;;;;;;;5000894;28;20390;-78
2023/01/11 09:47:51;;;;;;;1.25;0.77;;;;;;;;;;5001826;28;20030;-80
2023/01/11 09:50:17;;;;;;;;;;;;;;;;;;5001165;28;20050;-78
2023/01/11 09:52:51;;;;;;;0.85;0.68;;;;;;;;;;5009561;28;20451;-79
2023/01/11 09:55:23;;;;;;;1.05;0.60;;;;;;;;;;5024238;28;20046;-79
2023/01/11 09:58:06;;;;;;;0.73;0.73;;;;;;;;;;5040707;28;20413;-79
2023/01/11 10:00:39;;;;;;;1.73;0.70;;;;;;;;;;5050232;28;20030;-78
2023/01/11 10:03:23;;;;;;;1.08;0.50;;;;;;;;;;5004477;28;20022;-80
2023/01/11 10:06:01;;;;;;;1.10;0.70;;;;;;;;;;5005011;28;20110;-79
2023/01/11 10:08:38;;;;;;;1.08;0.60;;;;;;;;;;5006235;28;20031;-80
2023/01/11 10:11:19;;;;;;;0.43;0.43;;;;;;;;;;5010787;28;20018;-79
2023/01/11 10:13:46;;;;;;;1.17;0.70;;;;;;;;;;5041778;28;20099;-78
2023/01/11 10:16:23;;;;;;;0.80;0.65;;;;;;;;;;5027110;28;20077;-80
2023/01/11 10:18:52;;;;;;;0.35;0.35;;;;;;;;;;5026852;28;20026;-79
2023/01/11 10:21:23;;;;;;;0.55;0.52;;;;;;;;;;5021110;28;20030;-79
2023/01/11 10:23:53;;;;;;;0.90;0.70;;;;;;;;;;5010271;28;20025;-79
2023/01/11 10:26:27;;;;;;;0.60;0.52;;;;;;;;;;5040173;28;20026;-80
2023/01/11 10:29:29;;;;;;;0.95;0.80;;;;;;;;;;5039962;28;20030;-80
2023/01/11 10:40:21;;;;;;;2.08;0.93;;;;;;;;;;5039660;28;20041;-81
2023/01/11 10:42:51;;;;;;;1.13;0.73;;;;;;;;;;5028736;28;20064;-77
2023/01/11 10:45:24;;;;;;;1.17;0.80;;;;;;;;;;5030450;28;20117;-78
2023/01/11 10:48:00;;;;;;;1.00;0.60;;;;;;;;;;5042023;28;20022;-81
2023/01/11 10:50:47;;;;;;;0.70;0.60;;;;;;;;;;5025329;28;20042;-80
2023/01/11 10:53:17;;;;;;;1.13;0.80;;;;;;;;;;5027278;28;20104;-80
2023/01/11 10:56:06;;;;;;;1.13;0.70;;;;;;;;;;5058288;28;20046;-79
2023/01/11 10:58:34;;;;;;;2.70;1.42;;;;;;;;;;5020376;28;20034;-78
2023/01/11 11:01:19;;;;;;;3.08;1.80;;;;;;;;;;5023498;28;20488;-78
2023/01/11 11:04:03;;;;;;;2.92;1.27;;;;;;;;;;5023470;28;20022;-81
2023/01/11 11:06:41;;;;;;;1.48;0.80;;;;;;;;;;5023919;28;20006;-79
2023/01/11 11:09:11;;;;;;;1.05;0.82;;;;;;;;;;5038249;28;20014;-79
2023/01/11 11:11:51;;;;;;;2.83;0.93;;;;;;;;;;5025674;28;20089;-78
2023/01/11 11:14:30;;;;;;;0.63;0.60;;;;;;;;;;5031389;28;20056;-80
2023/01/11 11:16:56;;;;;;;1.40;0.93;;;;;;;;;;5028530;28;20049;-80
2023/01/11 11:19:26;;;;;;;1.52;1.05;;;;;;;;;;5035682;28;20025;-79
2023/01/11 11:21:52;;;;;;;1.45;1.00;;;;;;;;;;5036714;28;20022;-79
2023/01/11 11:24:31;;;;;;;6.47;0.85;;;;;;;;;;5041094;28;20156;-78
2023/01/11 11:27:00;;;;;;;0.73;0.55;;;;;;;;;;5034887;28;20040;-79
2023/01/11 11:29:29;;;;;;;1.23;0.95;;;;;;;;;;5024874;28;20494;-78
2023/01/11 11:31:56;;;;;;;1.08;0.60;;;;;;;;;;5021342;28;20556;-79
2023/01/11 11:34:26;;;;;;;1.27;0.70;;;;;;;;;;5015229;28;20042;-79
2023/01/11 11:36:53;;;;;;;1.27;0.70;;;;;;;;;;5020150;28;20021;-78
2023/01/11 11:39:20;;;;;;;1.92;0.70;;;;;;;;;;5022245;28;20025;-78
2023/01/11 11:41:47;;;;;;;1.52;0.85;;;;;;;;;;5009414;28;20049;-78
2023/01/11 11:44:21;;;;;;;0.70;0.60;;;;;;;;;;5026809;28;20106;-78
2023/01/11 11:46:56;;;;;;;1.65;1.08;;;;;;;;;;5014169;28;20421;-78
2023/01/11 11:49:23;;;;;;;1.13;0.90;;;;;;;;;;5019910;28;20098;-78
2023/01/11 11:51:50;;;;;;;1.25;0.88;;;;;;;;;;5022113;28;20044;-79
2023/01/11 11:54:21;;;;;;;5.72;1.20;;;;;;;;;;5034896;28;20034;-79
2023/01/11 11:56:48;;;;;;;2.87;0.60;;;;;;;;;;5046572;28;20028;-80
2023/01/11 11:59:16;;;;;;;1.60;0.75;;;;;;;;;;5022960;28;20041;-79
2023/01/11 12:01:45;;;;;;;3.03;0.75;;;;;;;;;;5022183;28;20033;-81
2023/01/11 12:04:18;;;;;;;0.60;0.60;;;;;;;;;;5023122;28;20017;-79
2023/01/11 12:06:53;;;;;;;0.60;0.60;;;;;;;;;;5016653;28;20371;-80
2023/01/11 12:09:30;;;;;;;1.83;0.85;;;;;;;;;;5021367;28;20026;-79
2023/01/11 12:11:56;;;;;;;1.70;0.95;;;;;;;;;;5039287;28;20045;-78
2023/01/11 12:14:27;;;;;;;1.85;1.15;;;;;;;;;;5027469;28;20026;-78
2023/01/11 12:16:54;;;;;;;1.92;1.10;;;;;;;;;;5027607;28;20034;-79
2023/01/11 12:19:29;;;;;;;1.85;1.10;;;;;;;;;;5026982;28;20017;-79
2023/01/11 12:22:13;;;;;;;5.40;1.20;;;;;;;;;;5042891;28;20054;-79
2023/01/11 12:24:40;;;;;;;2.20;1.42;;;;;;;;;;5030643;28;20039;-79
2023/01/11 12:27:12;;;;;;;1.70;1.13;;;;;;;;;;5020128;28;20022;-79
2023/01/11 12:29:38;;;;;;;1.60;0.85;;;;;;;;;;5013899;28;20018;-79
2023/01/11 12:32:10;;;;;;;3.63;1.30;;;;;;;;;;5022718;28;20076;-79
2023/01/11 12:34:48;;;;;;;0.95;0.88;;;;;;;;;;5020646;28;20027;-79
2023/01/11 12:37:25;;;;;;;1.65;1.05;;;;;;;;;;5019991;28;20391;-81
2023/01/11 12:40:14;;;;;;;2.80;1.20;;;;;;;;;;5019756;28;20072;-80
2023/01/11 12:42:59;;;;;;;1.08;1.00;;;;;;;;;;5016653;28;20095;-80
2023/01/11 12:45:25;;;;;;;1.85;0.90;;;;;;;;;;5004466;28;20030;-80
2023/01/11 12:48:09;;;;;;;3.45;1.20;;;;;;;;;;5017423;28;20030;-79
2023/01/11 12:50:54;;;;;;;2.15;1.38;;;;;;;;;;5009771;28;20048;-81
2023/01/11 12:53:20;;;;;;;1.73;1.02;;;;;;;;;;5013752;28;20084;-80
2023/01/11 12:55:52;;;;;;;1.33;1.17;;;;;;;;;;5019698;28;20037;-78
2023/01/11 12:58:22;;;;;;;1.80;1.27;;;;;;;;;;5021019;28;20269;-80
2023/01/11 13:01:00;;;;;;;3.33;1.42;;;;;;;;;;5035062;28;20158;-80
2023/01/11 13:03:45;;;;;;;2.33;1.15;;;;;;;;;;5019718;28;20450;-80
2023/01/11 13:06:30;;;;;;;1.17;1.00;;;;;;;;;;5033283;28;20022;-79
2023/01/11 13:09:11;;;;;;;1.50;0.82;;;;;;;;;;5021716;28;20082;-79
2023/01/11 13:11:37;;;;;;;2.40;0.70;;;;;;;;;;5021570;28;20438;-79
2023/01/11 13:14:18;;;;;;;0.80;0.77;;;;;;;;;;5009578;28;20046;-79
2023/01/11 13:17:00;;;;;;;1.38;0.82;;;;;;;;;;5014272;28;20033;-79
2023/01/11 13:19:26;;;;;;;1.48;0.73;;;;;;;;;;5001800;28;20129;-80
2023/01/11 13:21:53;;;;;;;2.53;1.20;;;;;;;;;;5000833;28;20487;-80
2023/01/11 13:24:25;;;;;;;0.80;0.60;;;;;;;;;;5015441;28;20379;-79
2023/01/11 13:26:52;;;;;;;2.15;0.98;;;;;;;;;;5033096;28;20017;-80
2023/01/11 13:29:23;;;;;;;1.35;0.98;;;;;;;;;;5042506;28;20036;-80
2023/01/11 13:31:49;;;;;;;2.55;0.93;;;;;;;;;;5028335;28;20026;-79
2023/01/11 13:34:24;;;;;;;0.63;0.63;;;;;;;;;;5023453;28;20044;-80
2023/01/11 13:36:55;;;;;;;1.30;0.70;;;;;;;;;;5013055;28;20034;-80
2023/01/11 13:39:30;;;;;;;1.75;0.90;;;;;;;;;;5010478;28;20395;-80
2023/01/11 13:42:02;;;;;;;4.10;1.20;;;;;;;;;;5020876;28;20042;-80
2023/01/11 13:44:30;;;;;;;2.58;1.55;;;;;;;;;;5040929;28;20033;-79
2023/01/11 13:47:04;;;;;;;2.75;2.03;;;;;;;;;;5026936;28;20034;-80
2023/01/11 13:49:45;;;;;;;3.17;1.80;;;;;;;;;;5024684;28;20022;-79
2023/01/11 13:52:16;;;;;;;2.92;1.70;;;;;;;;;;5016712;28;20043;-81
2023/01/11 13:54:50;;;;;;;2.38;1.58;;;;;;;;;;5016434;28;20034;-79
2023/01/11 13:57:39;;;;;;;2.67;1.40;;;;;;;;;;5041758;28;20392;-79
2023/01/11 14:00:20;;;;;;;1.48;0.82;;;;;;;;;;5018624;28;20030;-80
2023/01/11 14:02:48;;;;;;;2.10;1.00;;;;;;;;;;5018101;28;20030;-81
2023/01/11 14:05:17;;;;;;;1.35;1.17;;;;;;;;;;5009556;28;20026;-80
2023/01/11 14:07:59;;;;;;;1.20;1.10;;;;;;;;;;5008498;28;20023;-80
2023/01/11 14:10:25;;;;;;;1.88;1.05;;;;;;;;;;5009062;28;20053;-80
2023/01/11 14:13:10;;;;;;;4.47;1.00;;;;;;;;;;5025981;28;20034;-79
2023/01/11 14:16:08;;;;;;;1.60;0.60;;;;;;;;;;5024817;28;20097;-80
2023/01/11 14:18:47;;;;;;;0.70;0.60;;;;;;;;;;5024183;28;20033;-79
2023/01/11 14:21:26;;;;;;;0.55;0.55;;;;;;;;;;5028591;28;20060;-79
2023/01/11 14:23:53;;;;;;;0.40;0.40;;;;;;;;;;5019899;28;20026;-80
2023/01/11 14:26:34;;;;;;;1.00;0.40;;;;;;;;;;5038594;28;20328;-79
2023/01/11 14:29:14;;;;;;;0.60;0.40;;;;;;;;;;5028237;28;20045;-80
2023/01/11 14:31:40;;;;;;;0.77;0.43;;;;;;;;;;5041871;28;20029;-79
2023/01/11 14:34:18;;;;;;;2.75;0.60;;;;;;;;;;5024763;28;20578;-79
2023/01/11 14:37:03;;;;;;;0.40;0.40;;;;;;;;;;5026222;28;20097;-80
2023/01/11 14:39:47;;;;;;;0.40;0.40;;;;;;;;;;5004215;28;20491;-80
2023/01/11 14:42:16;;;;;;;0.60;0.40;;;;;;;;;;5013797;28;20033;-78
2023/01/11 14:44:52;;;;;;;0.52;0.25;;;;;;;;;;5021515;28;20473;-79
2023/01/11 14:47:27;;;;;;;0.50;0.40;;;;;;;;;;5023835;28;20037;-79
2023/01/11 14:50:08;;;;;;;0.45;0.40;;;;;;;;;;5040589;28;20029;-80
2023/01/11 14:52:36;;;;;;;0.40;0.40;;;;;;;;;;5023868;28;20446;-78
2023/01/11 14:55:04;;;;;;;0.63;0.40;;;;;;;;;;5029474;28;20084;-79
2023/01/11 14:57:36;;;;;;;0.95;0.65;;;;;;;;;;5050439;28;20030;-79
2023/01/11 15:00:23;;;;;;;0.35;0.30;;;;;;;;;;5021005;28;20033;-78
2023/01/11 15:03:01;;;;;;;1.02;0.40;;;;;;;;;;5010768;28;20041;-79
2023/01/11 15:05:30;;;;;;;1.23;0.45;;;;;;;;;;5013506;28;20038;-79
2023/01/11 15:08:17;;;;;;;2.05;0.30;;;;;;;;;;5003545;28;20058;-80
2023/01/11 15:10:46;;;;;;;0.75;0.50;;;;;;;;;;5000579;28;20038;-78
2023/01/11 15:13:32;;;;;;;0.93;0.47;;;;;;;;;;5022838;28;20034;-79
2023/01/11 15:18:54;;;;;;;4.13;0.60;;;;;;;;;;5024136;28;20036;-78
2023/01/11 15:21:24;;;;;;;1.17;0.50;;;;;;;;;;5037063;28;20037;-79
2023/01/11 15:23:53;;;;;;;0.63;0.50;;;;;;;;;;5018902;28;20499;-79
2023/01/11 15:26:20;;;;;;;2.83;0.82;;;;;;;;;;5033185;28;20093;-76
2023/01/11 15:28:50;;;;;;;1.38;0.43;;;;;;;;;;5039569;28;20085;-78
2023/01/11 15:31:35;;;;;;;0.43;0.40;;;;;;;;;;5038134;28;20022;-78
2023/01/11 15:34:21;;;;;;;1.08;0.60;;;;;;;;;;5021959;28;20022;-78